Time;durP1;ratioP1;P1;durP2;ratioP2;P2;SDS_P1;SDS_P2;PMS_P1;PMS_P2;Temp;Humidity;BMP_temperature;BMP_pressure;BME280_temperature;BME280_humidity;BME280_pressure;Samples;Min_cycle;Max_cycle;Signal;HPM_P1;HPM_P2
2021/11/17 02:26:01;;;;;;;;;;;;;;;5.05;100.00;101919.19;5040161;28;19978;-46
2021/11/17 02:28:34;;;;;;;;;;;;;;;5.04;100.00;101920.06;5052158;28;19924;-43
2021/11/17 02:31:19;;;;;;;;;;;;;;;5.05;100.00;101913.97;5045836;28;19929;-45
2021/11/17 02:33:48;;;;;;;;;;;;;;;5.08;100.00;101914.75;5049731;28;19929;-47
2021/11/17 02:36:15;;;;;;;;;;;;;;;5.01;100.00;101909.72;5048710;28;19978;-45
2021/11/17 02:39:08;;;;;;;;;;;;;;;5.03;100.00;101915.75;5050352;28;20279;-46
2021/11/17 02:41:38;;;;;;;;;;;;;;;5.05;100.00;101913.97;5042190;28;19925;-45
2021/11/17 02:44:07;;;;;;;;;;;;;;;5.05;100.00;101913.97;5045224;28;20027;-46
2021/11/17 02:46:40;;;;;;;;;;;;;;;4.99;100.00;101911.50;5048759;28;19933;-44
2021/11/17 02:49:25;;;;;;;;;;;;;;;5.00;100.00;101914.06;5038548;28;20364;-45
2021/11/17 02:52:11;;;;;;;;;;;;;;;5.05;100.00;101922.63;5042148;28;19995;-46
2021/11/17 02:55:16;;;;;;;;;;;;;;;5.04;100.00;101914.88;5041545;28;19924;-44
2021/11/17 02:57:55;;;;;;;;;;;;;;;5.09;100.00;101913.00;5045468;28;20004;-46
2021/11/17 03:00:25;;;;;;;;;;;;;;;5.04;100.00;101907.88;5047820;28;19925;-46
2021/11/17 03:02:57;;;;;;;;;;;;;;;5.11;100.00;101910.34;5048832;28;19932;-46
2021/11/17 03:05:39;;;;;;;;;;;;;;;5.07;100.00;101904.34;5047170;28;19963;-45
2021/11/17 03:08:06;;;;;;;;;;;;;;;5.05;100.00;101904.38;5052080;28;19925;-44
2021/11/17 03:10:42;;;;;;;;;;;;;;;5.07;100.00;101912.16;5038537;28;20008;-45
2021/11/17 03:13:15;;;;;;;;;;;;;;;5.05;100.00;101906.16;5040936;28;19932;-45
2021/11/17 03:15:48;;;;;;;;;;;;;;;5.07;100.00;101904.34;5051094;28;19924;-45
2021/11/17 03:18:21;;;;;;;;;;;;;;;5.07;100.00;101899.13;5043193;28;19929;-45
2021/11/17 03:20:57;;;;;;;;;;;;;;;5.01;100.00;101899.31;5041030;28;19978;-45
2021/11/17 03:23:23;;;;;;;;;;;;;;;5.03;100.00;101890.56;5036674;28;19936;-46
2021/11/17 03:25:58;;;;;;;;;;;;;;;5.05;100.00;101900.94;5048385;28;20015;-48
2021/11/17 03:28:48;;;;;;;;;;;;;;;5.08;100.00;101906.94;5044796;28;19929;-45
2021/11/17 03:31:35;;;;;;;;;;;;;;;5.06;100.00;101902.66;5037644;28;19924;-47
2021/11/17 03:34:08;;;;;;;;;;;;;;;5.00;100.00;101903.63;5037950;28;20372;-46
2021/11/17 03:36:38;;;;;;;;;;;;;;;5.05;100.00;101906.16;5036499;28;19947;-48
2021/11/17 03:39:20;;;;;;;;;;;;;;;5.10;100.00;101904.28;5049163;28;19928;-45
2021/11/17 03:41:46;;;;;;;;;;;;;;;5.10;100.00;101909.50;5044708;28;20403;-44
2021/11/17 03:44:14;;;;;;;;;;;;;;;5.10;100.00;101904.28;5040091;28;19929;-47
2021/11/17 03:46:53;;;;;;;;;;;;;;;5.07;100.00;101901.75;5046590;28;20388;-46
2021/11/17 03:49:47;;;;;;;;;;;;;;;5.06;100.00;101900.06;5036838;28;19933;-46
2021/11/17 03:52:29;;;;;;;;;;;;;;;5.10;100.00;101904.28;5042986;28;19929;-47
2021/11/17 03:55:07;;;;;;;;;;;;;;;5.16;100.00;101908.50;5044477;28;19925;-48
2021/11/17 03:57:39;;;;;;;;;;;;;;;5.15;100.00;101907.63;5040953;28;19932;-46
2021/11/17 04:00:21;;;;;;;;;;;;;;;5.15;100.00;101910.22;5040357;28;19925;-45
2021/11/17 04:03:14;;;;;;;;;;;;;;;5.17;100.00;101905.00;5041985;28;19977;-47
2021/11/17 04:05:41;;;;;;;;;;;;;;;5.14;100.00;101899.84;5031803;28;19967;-44
2021/11/17 04:08:10;;;;;;;;;;;;;;;5.20;100.00;101904.91;5040364;28;20019;-45
2021/11/17 04:10:39;;;;;;;;;;;;;;;5.16;100.00;101904.13;5040843;28;20356;-47
2021/11/17 04:13:15;;;;;;;;;;;;;;;5.18;100.00;101917.13;5033543;28;19960;-46
2021/11/17 04:15:45;;;;;;;;;;;;;;;5.20;100.00;101923.16;5032368;28;20547;-44
2021/11/17 04:18:17;;;;;;;;;;;;;;;5.20;100.00;101923.16;5033812;28;20273;-43
2021/11/17 04:20:57;;;;;;;;;;;;;;;5.21;100.00;101923.13;5033023;28;19936;-44
2021/11/17 04:23:29;;;;;;;;;;;;;;;5.24;100.00;101915.22;5048493;28;19929;-45
2021/11/17 04:25:56;;;;;;;;;;;;;;;5.20;100.00;101917.94;5031753;28;20761;-46
2021/11/17 04:28:41;;;;;;;;;;;;;;;5.21;100.00;101910.09;5030909;28;20404;-43
2021/11/17 04:31:21;;;;;;;;;;;;;;;5.20;100.00;101900.53;5032132;28;20275;-43
2021/11/17 04:34:00;;;;;;;;;;;;;;;5.20;100.00;101905.75;5033148;28;19926;-43
2021/11/17 04:36:30;;;;;;;;;;;;;;;5.25;100.00;101901.28;5029406;28;19929;-43
2021/11/17 04:39:19;;;;;;;;;;;;;;;5.19;100.00;101904.03;5031141;28;20391;-45
2021/11/17 04:41:46;;;;;;;;;;;;;;;5.27;100.00;101906.44;5049489;28;20384;-46
2021/11/17 04:44:32;;;;;;;;;;;;;;;5.23;100.00;101899.59;5032985;28;20351;-44
2021/11/17 04:47:17;;;;;;;;;;;;;;;5.28;100.00;101891.69;5047340;28;20420;-46
2021/11/17 04:49:55;;;;;;;;;;;;;;;5.22;100.00;101888.31;5030577;28;19929;-47
2021/11/17 04:52:31;;;;;;;;;;;;;;;5.19;100.00;101874.50;5032598;28;19979;-45
2021/11/17 04:55:16;;;;;;;;;;;;;;;5.25;100.00;101876.97;5064880;28;19929;-44
2021/11/17 04:57:52;;;;;;;;;;;;;;;5.19;100.00;101888.38;5030409;28;19925;-47
2021/11/17 05:00:19;;;;;;;;;;;;;;;5.17;100.00;101882.38;5030243;28;19926;-44
2021/11/17 05:02:45;;;;;;;;;;;;;;;5.17;100.00;101887.59;5030718;28;19925;-44
2021/11/17 05:05:24;;;;;;;;;;;;;;;5.17;100.00;101879.75;5031479;28;19952;-44
2021/11/17 05:07:51;;;;;;;;;;;;;;;5.18;100.00;101878.88;5033072;28;19972;-50
2021/11/17 05:10:18;;;;;;;;;;;;;;;5.18;100.00;101868.44;5065272;28;19925;-49
2021/11/17 05:12:44;;;;;;;;;;;;;;;5.20;100.00;101869.25;5033003;28;19998;-52
2021/11/17 05:15:17;;;;;;;;;;;;;;;5.16;100.00;101869.38;5032966;28;19948;-50
2021/11/17 05:17:43;;;;;;;;;;;;;;;5.11;100.00;101864.25;5032759;28;20394;-54
2021/11/17 05:20:22;;;;;;;;;;;;;;;5.08;100.00;101866.94;5030677;28;19925;-50
2021/11/17 05:23:07;;;;;;;;;;;;;;;5.03;100.00;101855.78;5063760;28;19925;-49
2021/11/17 05:26:00;;;;;;;;;;;;;;;5.10;100.00;101859.09;5032592;28;19929;-50
2021/11/17 05:28:30;;;;;;;;;;;;;;;5.11;100.00;101860.81;5034111;28;19925;-49
2021/11/17 05:31:06;;;;;;;;;;;;;;;5.16;100.00;101854.56;5032722;28;19925;-51
2021/11/17 05:33:42;;;;;;;;;;;;;;;5.19;100.00;101846.66;5034793;28;19925;-49
2021/11/17 05:36:27;;;;;;;;;;;;;;;5.15;100.00;101845.03;5036557;28;19932;-52
2021/11/17 05:39:12;;;;;;;;;;;;;;;5.17;100.00;101843.25;5036903;28;19929;-53
2021/11/17 05:41:39;;;;;;;;;;;;;;;5.15;100.00;101842.41;5051784;28;19974;-51
2021/11/17 05:44:18;;;;;;;;;;;;;;;5.13;100.00;101846.84;5036411;28;19931;-54
2021/11/17 05:47:11;;;;;;;;;;;;;;;5.16;100.00;101846.75;5036554;28;19929;-49
2021/11/17 05:49:40;;;;;;;;;;;;;;;5.15;100.00;101855.47;5036488;28;19929;-51
2021/11/17 05:52:16;;;;;;;;;;;;;;;5.16;100.00;101857.19;5034555;28;20308;-53
2021/11/17 05:54:55;;;;;;;;;;;;;;;5.19;100.00;101853.63;5036078;28;19971;-52
2021/11/17 05:57:33;;;;;;;;;;;;;;;5.22;100.00;101851.81;5036212;28;19932;-49
2021/11/17 06:00:36;;;;;;;;;;;;;;;5.12;100.00;101857.31;5033010;28;19925;-51
2021/11/17 06:03:05;;;;;;;;;;;;;;;5.12;100.00;101865.97;5071783;28;19924;-51
2021/11/17 06:05:32;;;;;;;;;;;;;;;5.16;100.00;101867.59;5043044;28;19979;-53
2021/11/17 06:07:59;;;;;;;;;;;;;;;5.19;100.00;101864.91;5036039;28;19984;-52
2021/11/17 06:10:33;;;;;;;;;;;;;;;5.17;100.00;101863.28;5036231;28;19951;-49
2021/11/17 06:13:00;;;;;;;;;;;;;;;5.19;100.00;101864.06;5066736;28;19925;-49
2021/11/17 06:15:26;;;;;;;;;;;;;;;5.20;100.00;101865.78;5034429;28;19979;-53
2021/11/17 06:17:54;;;;;;;;;;;;;;;5.24;100.00;101865.66;5067159;28;19925;-51
2021/11/17 06:20:21;;;;;;;;;;;;;;;5.28;100.00;101870.81;5066044;28;19932;-52
2021/11/17 06:22:48;;;;;;;;;;;;;;;5.28;100.00;101873.41;5066205;28;19932;-51
2021/11/17 06:25:15;;;;;;;;;;;;;;;5.28;100.00;101869.03;5067313;28;20430;-50
2021/11/17 06:27:43;;;;;;;;;;;;;;;5.29;100.00;101869.88;5067499;28;19925;-51
2021/11/17 06:30:10;;;;;;;;;;;;;;;5.28;100.00;101869.03;5067499;28;20323;-51
2021/11/17 06:32:37;;;;;;;;;;;;;;;5.28;100.00;101870.81;5051045;28;19929;-52
2021/11/17 06:35:04;;;;;;;;;;;;;;;5.30;100.00;101875.06;5035966;28;20399;-49
2021/11/17 06:37:31;;;;;;;;;;;;;;;5.36;100.00;101874.06;5050895;28;20352;-51
2021/11/17 06:39:59;;;;;;;;;;;;;;;5.36;100.00;101884.50;5035669;28;19925;-53
2021/11/17 06:42:27;;;;;;;;;;;;;;;5.36;100.00;101884.50;5067036;28;19948;-49
2021/11/17 06:44:55;;;;;;;;;;;;;;;5.34;100.00;101886.28;5035194;28;19929;-50
2021/11/17 06:47:22;;;;;;;;;;;;;;;5.39;100.00;101884.41;5050761;28;19933;-49
2021/11/17 06:49:48;;;;;;;;;;;;;;;5.40;100.00;101888.75;5034401;28;19929;-50
2021/11/17 06:52:15;;;;;;;;;;;;;;;5.47;100.00;101898.09;5032928;28;19933;-48
2021/11/17 06:54:41;;;;;;;;;;;;;;;5.41;100.00;101886.09;5033700;28;19979;-51
2021/11/17 06:57:08;;;;;;;;;;;;;;;5.44;100.00;101892.97;5035115;28;19925;-53
2021/11/17 06:59:35;;;;;;;;;;;;;;;5.46;100.00;101904.22;5035186;28;19935;-48
2021/11/17 07:02:05;;;;;;;;;;;;;;;5.46;100.00;101896.38;5035059;28;19942;-48
2021/11/17 07:04:33;;;;;;;;;;;;;;;5.46;100.00;101899.00;5034583;28;19926;-51
2021/11/17 07:06:59;;;;;;;;;;;;;;;5.47;100.00;101900.72;5033803;28;19929;-49
2021/11/17 07:09:26;;;;;;;;;;;;;;;5.43;100.00;101891.25;5035079;28;19977;-51
2021/11/17 07:11:53;;;;;;;;;;;;;;;5.47;100.00;101895.50;5035065;28;20004;-50
2021/11/17 07:14:22;;;;;;;;;;;;;;;5.50;100.00;101902.41;5032497;28;19936;-51
2021/11/17 07:16:49;;;;;;;;;;;;;;;5.50;100.00;101898.03;5030273;28;19925;-50
2021/11/17 07:19:16;;;;;;;;;;;;;;;5.51;100.00;101901.50;5050239;28;19929;-49
2021/11/17 07:21:44;;;;;;;;;;;;;;;5.50;100.00;101900.63;5033682;28;19932;-54
2021/11/17 07:24:10;;;;;;;;;;;;;;;5.54;100.00;101911.84;5032094;28;19936;-52
2021/11/17 07:26:37;;;;;;;;;;;;;;;5.52;100.00;101911.91;5032861;28;19933;-49
2021/11/17 07:29:04;;;;;;;;;;;;;;;5.52;100.00;101906.69;5034041;28;19968;-51
2021/11/17 07:31:30;;;;;;;;;;;;;;;5.56;100.00;101905.69;5030784;28;19925;-50
2021/11/17 07:33:57;;;;;;;;;;;;;;;5.57;100.00;101911.75;5031675;28;19929;-49
2021/11/17 07:36:24;;;;;;;;;;;;;;;5.62;100.00;101909.88;5034557;28;19932;-50
2021/11/17 07:38:50;;;;;;;;;;;;;;;5.67;100.00;101909.75;5034436;28;20343;-52
2021/11/17 07:41:17;;;;;;;;;;;;;;;5.66;100.00;101905.41;5031859;28;19925;-50
2021/11/17 07:43:43;;;;;;;;;;;;;;;5.69;100.00;101913.19;5063974;28;19929;-49
2021/11/17 07:46:10;;;;;;;;;;;;;;;5.69;100.00;101900.97;5033010;28;19925;-51
2021/11/17 07:48:37;;;;;;;;;;;;;;;5.69;100.00;101900.13;5066081;28;20325;-49
2021/11/17 07:51:04;;;;;;;;;;;;;;;5.66;100.00;101893.25;5034254;28;19979;-50
2021/11/17 07:53:31;;;;;;;;;;;;;;;5.68;100.00;101899.25;5066000;28;19933;-54
2021/11/17 07:55:58;;;;;;;;;;;;;;;5.70;100.00;101904.44;5033242;28;19932;-50
2021/11/17 07:58:25;;;;;;;;;;;;;;;5.70;100.00;101904.44;5033721;28;19925;-49
2021/11/17 08:00:53;;;;;;;;;;;;;;;5.71;100.00;101903.53;5065618;28;19933;-53
2021/11/17 08:03:20;;;;;;;;;;;;;;;5.70;100.00;101914.88;5063669;28;20384;-54
2021/11/17 08:05:48;;;;;;;;;;;;;;;5.75;100.00;101920.84;5034182;28;20414;-51
2021/11/17 08:08:15;;;;;;;;;;;;;;;5.74;100.00;101922.59;5032542;28;20392;-55
2021/11/17 08:10:44;;;;;;;;;;;;;;;5.82;100.00;101913.69;5031440;28;19929;-54
2021/11/17 08:13:10;;;;;;;;;;;;;;;5.86;100.00;101923.16;5039306;28;19929;-52
2021/11/17 08:15:37;;;;;;;;;;;;;;;5.88;100.00;101922.22;5049496;28;19970;-50
2021/11/17 08:18:04;;;;;;;;;;;;;;;5.89;100.00;101916.09;5028953;28;19932;-55
2021/11/17 08:20:30;;;;;;;;;;;;;;;5.94;100.00;101918.56;5030499;28;19941;-54
2021/11/17 08:23:00;;;;;;;;;;;;;;;5.96;100.00;101915.91;5033759;28;20279;-55
2021/11/17 08:25:29;;;;;;;;;;;;;;;5.99;100.00;101918.47;5033583;28;19925;-53
2021/11/17 08:27:55;;;;;;;;;;;;;;;6.04;100.00;101914.84;5046823;28;20019;-54
2021/11/17 08:30:24;;;;;;;;;;;;;;;6.10;100.00;101921.63;5051682;28;19932;-50
2021/11/17 08:32:51;;;;;;;;;;;;;;;6.08;100.00;101924.28;5048058;28;19932;-52
2021/11/17 08:35:18;;;;;;;;;;;;;;;6.13;100.00;101926.75;5044668;28;19928;-52
2021/11/17 08:37:47;;;;;;;;;;;;;;;6.17;100.00;101937.97;5040163;28;19929;-51
2021/11/17 08:40:16;;;;;;;;;;;;;;;6.21;100.00;101944.81;5053234;28;19925;-53
2021/11/17 08:42:43;;;;;;;;;;;;;;;6.23;100.00;101936.03;5053385;28;20322;-52
2021/11/17 08:45:10;;;;;;;;;;;;;;;6.24;100.00;101937.75;5050581;28;19976;-50
2021/11/17 08:47:36;;;;;;;;;;;;;;;6.25;100.00;101939.44;5061812;28;19933;-53
2021/11/17 08:50:04;;;;;;;;;;;;;;;6.25;100.00;101934.22;5052098;28;19947;-51
2021/11/17 08:52:30;;;;;;;;;;;;;;;6.28;100.00;101940.28;5035399;28;19925;-50
2021/11/17 08:54:57;;;;;;;;;;;;;;;6.32;100.00;101940.13;5048570;28;19925;-51
2021/11/17 08:57:24;;;;;;;;;;;;;;;6.37;100.00;101943.47;5036739;28;20007;-53
2021/11/17 08:59:51;;;;;;;;;;;;;;;6.37;100.00;101935.63;5050196;28;19943;-51
2021/11/17 09:02:18;;;;;;;;;;;;;;;6.38;100.00;101942.56;5038820;28;19987;-54
2021/11/17 09:04:45;;;;;;;;;;;;;;;6.42;100.00;101938.09;5048298;28;19924;-54
2021/11/17 09:07:13;;;;;;;;;;;;;;;6.45;100.00;101937.16;5052656;28;19928;-49
2021/11/17 09:09:40;;;;;;;;;;;;;;;6.47;100.00;101941.44;5046145;28;19925;-52
2021/11/17 09:12:07;;;;;;;;;;;;;;;6.52;100.00;101946.53;5035342;28;19986;-51
2021/11/17 09:14:33;;;;;;;;;;;;;;;6.53;100.00;101946.47;5050357;28;20299;-53
2021/11/17 09:17:00;;;;;;;;;;;;;;;6.56;100.00;101945.53;5049400;28;19960;-49
2021/11/17 09:19:27;;;;;;;;;;;;;;;6.59;100.00;101948.03;5049914;28;19929;-53
2021/11/17 09:21:54;;;;;;;;;;;;;;;6.63;100.00;101948.81;5052499;28;19924;-51
2021/11/17 09:24:21;;;;;;;;;;;;;;;6.60;100.00;101949.75;5036267;28;19929;-45
2021/11/17 09:26:49;;;;;;;;;;;;;;;6.65;100.00;101954.84;5042305;28;20471;-47
2021/11/17 09:29:16;;;;;;;;;;;;;;;6.70;100.00;101953.78;5051342;28;19935;-46
2021/11/17 09:31:44;;;;;;;;;;;;;;;6.69;100.00;101953.84;5052353;28;19932;-46
2021/11/17 09:34:11;;;;;;;;;;;;;;;6.69;100.00;101951.22;5042611;28;19932;-45
2021/11/17 09:36:38;;;;;;;;;;;;;;;6.74;100.00;101955.41;5047660;28;19949;-45
2021/11/17 09:39:06;;;;;;;;;;;;;;;6.71;100.00;101963.34;5046596;28;19925;-46
2021/11/17 09:41:37;;;;;;;;;;;;;;;6.71;100.00;101968.56;5028488;28;19951;-48
2021/11/17 09:44:06;;;;;;;;;;;;;;;6.77;100.00;101965.75;5047281;28;19929;-46
2021/11/17 09:46:34;;;;;;;;;;;;;;;6.82;100.00;101965.63;5030933;28;19937;-45
2021/11/17 09:49:02;;;;;;;;;;;;;;;6.84;100.00;101969.03;5044923;28;20335;-47
2021/11/17 09:51:31;;;;;;;;;;;;;;;6.83;100.00;101967.34;5051132;28;20312;-46
2021/11/17 09:54:18;;;;;;;;;;;;;;;6.86;100.00;101964.63;5052208;28;20434;-47
2021/11/17 09:56:48;;;;;;;;;;;;;;;6.91;100.00;101965.34;5044326;28;19924;-43
2021/11/17 09:59:18;;;;;;;;;;;;;;;6.97;100.00;101973.88;5047865;28;20126;-43
2021/11/17 10:02:11;;;;;;;;;;;;;;;7.03;100.00;101965.84;5044648;28;19929;-44
2021/11/17 10:04:57;;;;;;;;;;;;;;;6.97;100.00;101977.38;5027772;28;20379;-49
2021/11/17 10:13:18;;;;;;;;;;;;;;;7.08;100.00;101982.25;5043201;28;19997;-44
2021/11/17 10:15:45;;;;;;;;;;;;;;;7.07;100.00;101981.38;5031915;28;19926;-45
2021/11/17 10:18:18;;;;;;;;;;;;;;;7.10;100.00;101983.03;5049649;28;20015;-45
2021/11/17 10:20:48;;;;;;;;;;;;;;;7.15;100.00;101994.22;5051081;28;19925;-44
2021/11/17 10:23:23;;;;;;;;;;;;;;;7.15;100.00;101994.22;5054001;28;20296;-44
2021/11/17 10:25:53;;;;;;;;;;;;;;;7.19;100.00;101995.00;5036984;28;19925;-46
2021/11/17 10:28:21;;;;;;;;;;;;;;;7.20;100.00;101994.94;5032494;28;20330;-46
2021/11/17 10:30:51;;;;;;;;;;;;;;;7.21;100.00;101990.56;5036176;28;20418;-44
2021/11/17 10:33:20;;;;;;;;;;;;;;;7.22;100.00;102000.13;5035795;28;19925;-44
2021/11/17 10:36:00;;;;;;;;;;;;;;;7.26;100.00;101994.72;5050988;28;20348;-46
2021/11/17 10:38:32;;;;;;;;;;;;;;;7.32;100.00;102005.91;5031930;28;19978;-48
2021/11/17 10:40:58;;;;;;;;;;;;;;;7.35;100.00;102005.78;5031960;28;19936;-45
2021/11/17 10:43:35;;;;;;;;;;;;;;;7.35;100.00;102005.78;5035243;28;20390;-44
2021/11/17 10:46:12;;;;;;;;;;;;;;;7.41;100.00;102003.81;5035553;28;19992;-53
2021/11/17 10:48:41;;;;;;;;;;;;;;;7.44;100.00;101998.50;5035411;28;19960;-54
2021/11/17 10:51:18;;;;;;;;;;;;;;;7.46;100.00;102006.31;5035306;28;20035;-44
2021/11/17 10:53:48;;;;;;;;;;;;;;;7.50;100.00;101997.44;5035214;28;19925;-45
2021/11/17 10:56:17;;;;;;;;;;;;;;;7.57;100.00;101998.94;5050717;28;20280;-44
2021/11/17 10:58:44;;;;;;;;;;;;;;;7.60;100.00;102009.31;5033847;28;20372;-44
2021/11/17 11:01:27;;;;;;;;;;;;;;;7.68;100.00;102001.19;5050288;28;20281;-46
2021/11/17 11:03:56;;;;;;;;;;;;;;;7.69;100.00;101999.41;5034895;28;19925;-46
2021/11/17 11:06:41;;;;;;;;;;;;;;;7.71;100.00;102002.84;5031278;28;19925;-44
2021/11/17 11:09:20;;;;;;;;;;;;;;;7.76;100.00;102000.94;5048769;28;19925;-44
2021/11/17 11:11:48;;;;;;;;;;;;;;;7.79;100.00;101999.03;5031895;28;19929;-46
2021/11/17 11:14:19;;;;;;;;;;;;;;;7.85;100.00;101995.34;5046848;28;19979;-45
2021/11/17 11:16:48;;;;;;;;;;;;;;;7.90;100.00;102001.28;5034736;28;19937;-44
2021/11/17 11:19:14;;;;;;;;;;;;;;;7.95;100.00;102004.59;5033273;28;19971;-46
2021/11/17 11:21:45;;;;;;;;;;;;;;;8.04;100.00;102007.81;5032449;28;19929;-45
2021/11/17 11:24:12;;;;;;;;;;;;;;;8.08;100.00;102006.78;5030863;28;19937;-43
2021/11/17 11:26:57;;;;;;;;;;;;;;;8.15;100.00;102010.03;5034464;28;20434;-45
2021/11/17 11:29:44;;;;;;;;;;;;;;;8.20;100.00;102008.13;5034613;28;19925;-43
2021/11/17 11:32:31;;;;;;;;;;;;;;;8.22;100.00;102004.53;5034349;28;19925;-44
2021/11/17 11:34:57;;;;;;;;;;;;;;;8.32;100.00;101997.19;5034272;28;19929;-47
2021/11/17 11:37:24;;;;;;;;;;;;;;;8.39;100.00;101996.03;5033460;28;19934;-44
2021/11/17 11:39:55;;;;;;;;;;;;;;;8.50;100.00;102003.53;5045733;28;20438;-44
2021/11/17 11:42:48;;;;;;;;;;;;;;;8.59;100.00;102003.19;5030887;28;20400;-47
2021/11/17 11:45:26;;;;;;;;;;;;;;;8.65;100.00;102007.31;5033122;28;19925;-46
2021/11/17 11:47:53;;;;;;;;;;;;;;;8.72;100.00;102006.16;5034030;28;20406;-44
2021/11/17 11:50:30;;;;;;;;;;;;;;;8.76;100.00;102006.91;5032897;28;19971;-47
2021/11/17 11:53:09;;;;;;;;;;;;;;;8.79;100.00;102009.41;5030342;28;20021;-44
2021/11/17 11:55:54;;;;;;;;;;;;;;;8.80;100.00;102011.13;5033287;28;20418;-46
2021/11/17 11:58:21;;;;;;;;;;;;;;;8.87;100.00;102007.34;5049171;28;19932;-43
2021/11/17 12:00:51;;;;;;;;;;;;;;;8.92;100.00;102000.16;5033954;28;20016;-54
2021/11/17 12:03:18;;;;;;;;;;;;;;;8.96;100.00;101999.09;5049011;28;19925;-53
2021/11/17 12:05:46;;;;;;;;;;;;;;;9.01;100.00;102003.31;5033889;28;19932;-55
2021/11/17 12:08:39;;;;;;;;;;;;;;;9.06;100.00;102004.00;5048932;28;19932;-55
2021/11/17 12:11:06;;;;;;;;;;;;;;;9.12;100.00;102001.97;5032243;28;20447;-52
2021/11/17 12:13:33;;;;;;;;;;;;;;;9.15;100.00;102008.88;5033425;28;19929;-46
2021/11/17 12:16:00;;;;;;;;;;;;;;;9.24;100.00;101999.75;5033000;28;19925;-45
2021/11/17 12:18:27;;;;;;;;;;;;;;;9.30;100.00;102010.88;5033344;28;19948;-49
2021/11/17 12:21:00;;;;;;;;;;;;;;;9.29;100.00;102013.56;5048733;28;20310;-44
2021/11/17 12:23:28;;;;;;;;;;;;;;;9.31;100.00;102009.06;5033421;28;20023;-46
2021/11/17 12:25:57;;;;;;;;;;;;;;;9.36;100.00;102011.53;5033255;28;19933;-44
2021/11/17 12:28:24;;;;;;;;;;;;;;;9.43;100.00;102003.31;5033447;28;19975;-45
2021/11/17 12:30:58;;;;;;;;;;;;;;;9.49;100.00;102004.84;5048948;28;20390;-47
2021/11/17 12:33:40;;;;;;;;;;;;;;;9.60;100.00;102010.50;5048460;28;19929;-46
2021/11/17 12:36:10;;;;;;;;;;;;;;;9.66;100.00;102013.78;5033472;28;20248;-55
2021/11/17 12:38:37;;;;;;;;;;;;;;;9.68;100.00;102009.31;5031806;28;20345;-51
2021/11/17 12:41:09;;;;;;;;;;;;;;;9.69;100.00;102011.03;5044406;28;20376;-51
2021/11/17 12:43:38;;;;;;;;;;;;;;;9.74;100.00;102011.69;5032677;28;19925;-52
2021/11/17 12:46:07;;;;;;;;;;;;;;;9.79;100.00;102015.81;5033225;28;19971;-50
2021/11/17 12:48:36;;;;;;;;;;;;;;;9.88;100.00;102014.56;5048389;28;19925;-55
2021/11/17 12:51:04;;;;;;;;;;;;;;;9.89;100.00;102005.75;5031705;28;19970;-52
2021/11/17 12:53:33;;;;;;;;;;;;;;;9.92;100.00;102010.88;5031908;28;19975;-47
2021/11/17 12:56:02;;;;;;;;;;;;;;;9.97;100.00;102014.16;5044721;28;19925;-44
2021/11/17 12:58:38;;;;;;;;;;;;;;;9.99;100.00;102014.09;5045173;28;19929;-43
2021/11/17 13:01:12;;;;;;;;;;;;;;;10.02;100.00;102018.34;5048165;28;19925;-46
2021/11/17 13:03:52;;;;;;;;;;;;;;;10.06;100.00;102019.94;5032859;28;19925;-44
2021/11/17 13:06:22;;;;;;;;;;;;;;;10.06;100.00;102014.66;5047837;28;19933;-48
2021/11/17 13:09:05;;;;;;;;;;;;;;;10.03;100.00;102022.69;5032718;28;19935;-43
2021/11/17 13:11:32;;;;;;;;;;;;;;;10.03;100.00;102020.06;5032756;28;19925;-47
2021/11/17 13:13:59;;;;;;;;;;;;;;;10.05;100.00;102018.22;5032876;28;20031;-45
2021/11/17 13:16:27;;;;;;;;;;;;;;;10.05;100.00;102023.47;5028960;28;19929;-43
2021/11/17 13:18:58;;;;;;;;;;;;;;;10.03;100.00;102023.53;5029218;28;19929;-49
2021/11/17 13:21:31;;;;;;;;;;;;;;;10.00;100.00;102014.97;5030942;28;19925;-52
2021/11/17 13:24:01;;;;;;;;;;;;;;;9.97;100.00;102022.03;5031344;28;19952;-53
2021/11/17 13:26:33;;;;;;;;;;;;;;;9.98;100.00;102018.50;5032499;28;19932;-52
2021/11/17 13:29:23;;;;;;;;;;;;;;;9.97;100.00;102011.53;5047299;28;19998;-54
2021/11/17 13:31:51;;;;;;;;;;;;;;;9.99;100.00;102019.34;5027205;28;19929;-52
2021/11/17 13:34:28;;;;;;;;;;;;;;;10.03;100.00;102020.06;5029564;28;19925;-52
2021/11/17 13:36:56;;;;;;;;;;;;;;;10.04;100.00;102021.78;5032462;28;19975;-54
2021/11/17 13:39:24;;;;;;;;;;;;;;;10.09;100.00;102022.41;5047845;28;19929;-44
2021/11/17 13:41:54;;;;;;;;;;;;;;;10.11;100.00;102036.34;5029668;28;19971;-49
2021/11/17 13:44:22;;;;;;;;;;;;;;;10.12;100.00;102036.28;5029775;28;19929;-50
2021/11/17 13:46:59;;;;;;;;;;;;;;;10.12;100.00;102035.44;5031282;28;19925;-48
2021/11/17 13:49:26;;;;;;;;;;;;;;;10.18;100.00;102040.41;5032628;28;19929;-49
2021/11/17 13:51:53;;;;;;;;;;;;;;;10.22;100.00;102039.34;5030400;28;19933;-51
2021/11/17 13:54:20;;;;;;;;;;;;;;;10.26;100.00;102033.03;5030173;28;20461;-49
2021/11/17 13:56:47;;;;;;;;;;;;;;;10.34;100.00;102034.47;5036184;28;19932;-50
2021/11/17 13:59:15;;;;;;;;;;;;;;;10.39;100.00;102032.50;5050495;28;19925;-51
2021/11/17 14:01:42;;;;;;;;;;;;;;;10.45;100.00;102034.88;5031054;28;19936;-50
2021/11/17 14:04:09;;;;;;;;;;;;;;;10.48;100.00;102038.22;5035006;28;19948;-52
2021/11/17 14:06:36;;;;;;;;;;;;;;;10.58;100.00;102036.03;5033753;28;19987;-50
2021/11/17 14:09:03;;;;;;;;;;;;;;;10.64;100.00;102037.50;5048007;28;20350;-47
2021/11/17 14:11:33;;;;;;;;;;;;;;;10.70;100.00;102041.63;5050419;28;20059;-48
2021/11/17 14:14:00;;;;;;;;;;;;;;;10.76;100.00;102051.88;5035465;28;19936;-44
2021/11/17 14:16:27;;;;;;;;;;;;;;;10.79;100.00;102041.22;5034652;28;19925;-46
2021/11/17 14:18:54;;;;;;;;;;;;;;;10.85;100.00;102045.31;5051118;28;19932;-44
2021/11/17 14:21:23;;;;;;;;;;;;;;;10.89;100.00;102058.25;5035803;28;20379;-46
2021/11/17 14:23:50;;;;;;;;;;;;;;;10.85;100.00;102051.44;5034329;28;19925;-45
2021/11/17 14:26:17;;;;;;;;;;;;;;;10.82;100.00;102052.44;5034536;28;19926;-50
2021/11/17 14:28:46;;;;;;;;;;;;;;;10.81;92.96;102061.25;5035660;28;19926;-44
2021/11/17 14:31:21;;;;;;;;;;;;;;;10.76;88.79;102067.66;5050789;28;19925;-48
2021/11/17 14:33:51;;;;;;;;;;;;;;;10.70;89.15;102081.09;5035334;28;19925;-45
2021/11/17 14:36:21;;;;;;;;;;;;;;;10.63;89.05;102084.03;5035286;28;20334;-45
2021/11/17 14:38:48;;;;;;;;;;;;;;;10.60;88.81;102084.13;5035395;28;19925;-47
2021/11/17 14:41:14;;;;;;;;;;;;;;;10.63;89.05;102088.41;5035219;28;19948;-46
2021/11/17 14:43:41;;;;;;;;;;;;;;;10.61;89.00;102085.84;5017871;28;19929;-46
2021/11/17 14:46:08;;;;;;;;;;;;;;;10.55;89.50;102091.41;5035285;28;20280;-45
2021/11/17 14:48:35;;;;;;;;;;;;;;;10.55;90.50;102087.91;5035042;28;19929;-47
2021/11/17 14:51:02;;;;;;;;;;;;;;;10.53;91.31;102087.97;5035395;28;20522;-49
2021/11/17 14:53:37;;;;;;;;;;;;;;;10.53;91.88;102093.25;5035496;28;19960;-49
2021/11/17 14:56:04;;;;;;;;;;;;;;;10.47;90.11;102090.88;5034059;28;20032;-51
2021/11/17 14:58:31;;;;;;;;;;;;;;;10.48;88.17;102089.97;5035261;28;20276;-49
2021/11/17 15:00:59;;;;;;;;;;;;;;;10.44;88.52;102093.66;5035207;28;20015;-48
2021/11/17 15:03:26;;;;;;;;;;;;;;;10.40;88.44;102087.69;5047561;28;19925;-49
2021/11/17 15:05:52;;;;;;;;;;;;;;;10.31;89.48;102090.69;5030904;28;19948;-50
2021/11/17 15:08:19;;;;;;;;;;;;;;;10.28;89.17;102089.03;5035361;28;19932;-50
2021/11/17 15:10:46;;;;;;;;;;;;;;;10.19;89.43;102081.56;5033684;28;19925;-51
2021/11/17 15:13:13;;;;;;;;;;;;;;;10.15;89.98;102077.34;5035014;28;19925;-51
2021/11/17 15:15:41;;;;;;;;;;;;;;;10.19;89.67;102086.81;5034994;28;19925;-49
2021/11/17 15:18:08;;;;;;;;;;;;;;;10.13;89.40;102084.47;5034851;28;20372;-49
2021/11/17 15:20:35;;;;;;;;;;;;;;;10.04;88.86;102088.34;5034995;28;20303;-46
2021/11/17 15:23:02;;;;;;;;;;;;;;;9.92;89.22;102102.84;5033140;28;19933;-48
2021/11/17 15:25:32;;;;;;;;;;;;;;;9.88;89.58;102098.63;5031328;28;20371;-46
2021/11/17 15:28:01;;;;;;;;;;;;;;;9.79;89.96;102097.25;5033289;28;20011;-48